createdAt,value
2022-08-09T00:00:46.062Z,66.20
2022-08-09T00:05:03.099Z,66.36
2022-08-09T00:09:25.090Z,66.19
2022-08-09T00:13:32.760Z,66.16
2022-08-09T00:18:05.171Z,66.29
2022-08-09T00:22:08.004Z,66.37
2022-08-09T00:26:29.882Z,66.31
2022-08-09T00:30:42.304Z,66.34
2022-08-09T00:34:52.137Z,66.44
2022-08-09T00:39:00.727Z,66.51
2022-08-09T00:44:15.772Z,66.51
2022-08-09T00:47:41.418Z,66.63
2022-08-09T00:51:54.532Z,66.71
2022-08-09T00:56:09.651Z,66.99
2022-08-09T01:00:21.952Z,67.02
2022-08-09T01:04:34.148Z,67.08
2022-08-09T01:08:51.600Z,67.09
2022-08-09T01:13:07.502Z,67.05
2022-08-09T01:17:20.425Z,67.16
2022-08-09T01:21:50.830Z,67.16
2022-08-09T01:26:12.408Z,67.07
2022-08-09T01:30:33.499Z,66.88
2022-08-09T01:34:52.267Z,67.30
2022-08-09T01:39:02.132Z,67.16
2022-08-09T01:43:10.111Z,67.40
2022-08-09T01:47:18.603Z,67.92
2022-08-09T01:51:27.153Z,67.85
2022-08-09T01:55:40.697Z,68.01
2022-08-09T01:59:52.561Z,68.49
2022-08-09T02:04:01.821Z,68.78
2022-08-09T02:08:39.692Z,68.88
2022-08-09T02:12:41.801Z,69.01
2022-08-09T02:16:59.145Z,69.02
2022-08-09T02:21:22.992Z,69.09
2022-08-09T02:25:33.113Z,69.08
2022-08-09T02:29:53.468Z,69.06
2022-08-09T02:34:13.264Z,69.26
2022-08-09T02:38:28.703Z,69.25
2022-08-09T02:42:40.976Z,69.58
2022-08-09T02:46:52.250Z,69.62
2022-08-09T02:51:02.424Z,69.69
2022-08-09T02:55:20.718Z,69.77
2022-08-09T02:59:36.351Z,70.30
2022-08-09T03:04:17.315Z,70.11
2022-08-09T03:08:16.363Z,70.31
2022-08-09T03:12:25.603Z,70.14
2022-08-09T03:16:33.606Z,70.37
2022-08-09T03:20:45.417Z,70.38
2022-08-09T03:25:06.284Z,70.32
2022-08-09T03:29:23.082Z,70.65
2022-08-09T03:33:54.457Z,70.77
2022-08-09T03:37:59.932Z,70.68
2022-08-09T03:42:08.533Z,71.01
2022-08-09T03:46:20.712Z,70.72
2022-08-09T03:50:36.472Z,71.06
2022-08-09T03:54:44.413Z,71.24
2022-08-09T03:58:52.466Z,71.13
2022-08-09T04:03:04.129Z,70.92
2022-08-09T04:07:14.808Z,71.08
2022-08-09T04:11:25.030Z,70.69
2022-08-09T04:15:52.095Z,70.50
2022-08-09T04:20:02.678Z,70.31
2022-08-09T04:24:11.001Z,70.36
2022-08-09T04:28:31.433Z,69.83
2022-08-09T04:32:46.870Z,69.53
2022-08-09T04:36:54.945Z,69.26
2022-08-09T04:41:02.277Z,69.16
2022-08-09T04:45:12.467Z,69.50
2022-08-09T04:49:30.127Z,69.46
2022-08-09T04:53:53.830Z,69.57
2022-08-09T04:58:09.616Z,69.54
2022-08-09T05:02:17.558Z,69.63
2022-08-09T05:06:27.922Z,69.86
2022-08-09T05:10:36.846Z,70.33
2022-08-09T05:14:44.924Z,70.66
2022-08-09T05:18:59.212Z,70.68
2022-08-09T05:23:54.879Z,70.76
2022-08-09T05:27:34.982Z,70.37
2022-08-09T05:31:57.566Z,70.09
2022-08-09T05:36:07.155Z,70.15
2022-08-09T05:40:16.291Z,70.08
2022-08-09T05:44:29.074Z,69.95
2022-08-09T05:48:42.088Z,69.87
2022-08-09T05:52:53.366Z,70.02
2022-08-09T05:57:01.816Z,69.95
2022-08-09T06:01:15.999Z,69.66
2022-08-09T06:05:50.480Z,69.55
2022-08-09T06:10:02.000Z,68.99
2022-08-09T06:14:11.160Z,68.65
2022-08-09T06:18:18.952Z,69.13
2022-08-09T06:22:28.974Z,69.19
2022-08-09T06:26:43.698Z,68.97
2022-08-09T06:30:53.327Z,68.02
2022-08-09T06:35:01.215Z,67.31
2022-08-09T06:39:14.780Z,67.08
2022-08-09T06:43:23.415Z,66.38
2022-08-09T06:47:39.846Z,66.12
2022-08-09T06:51:49.368Z,65.77
2022-08-09T06:55:59.339Z,65.75
2022-08-09T07:00:55.908Z,65.26
2022-08-09T07:04:36.451Z,64.44
2022-08-09T07:08:43.963Z,63.97
2022-08-09T07:12:57.063Z,63.99
2022-08-09T07:17:05.876Z,63.59
2022-08-09T07:21:15.817Z,63.26
2022-08-09T07:25:23.248Z,62.80
2022-08-09T07:29:38.044Z,62.20
2022-08-09T07:33:53.024Z,61.47
2022-08-09T07:38:03.030Z,61.15
2022-08-09T07:42:11.660Z,60.93
2022-08-09T07:46:19.553Z,60.19
2022-08-09T07:50:32.990Z,59.52
2022-08-09T07:54:51.424Z,59.67
2022-08-09T07:59:00.213Z,58.51
2022-08-09T08:03:11.454Z,57.44
2022-08-09T08:08:43.914Z,57.20
2022-08-09T08:12:11.615Z,56.80
2022-08-09T08:16:31.396Z,56.57
2022-08-09T08:20:42.903Z,55.84
2022-08-09T08:24:55.912Z,55.38
2022-08-09T08:29:05.038Z,55.03
2022-08-09T08:33:24.131Z,53.25
2022-08-09T08:37:41.154Z,51.96
2022-08-09T08:42:00.787Z,51.16
2022-08-09T08:46:33.052Z,51.71
2022-08-09T08:50:38.514Z,51.70
2022-08-09T08:54:45.947Z,50.74
2022-08-09T08:58:56.468Z,49.69
2022-08-09T09:03:11.511Z,49.10
2022-08-09T09:07:22.112Z,48.92
2022-08-09T09:11:33.861Z,48.86
2022-08-09T09:15:49.173Z,48.82
2022-08-09T09:19:58.505Z,49.07
2022-08-09T09:24:21.403Z,47.21
2022-08-09T09:29:01.689Z,46.77
2022-08-09T09:33:17.238Z,47.08
2022-08-09T09:37:32.510Z,46.69
2022-08-09T09:41:48.971Z,44.92
2022-08-09T09:46:39.584Z,44.01
2022-08-09T09:50:49.568Z,43.10
2022-08-09T09:55:16.641Z,42.87
2022-08-09T09:59:37.866Z,42.82
2022-08-09T10:03:57.184Z,40.86
2022-08-09T10:08:27.364Z,38.68
2022-08-09T10:12:43.607Z,39.93
2022-08-09T10:17:11.354Z,38.79
2022-08-09T10:21:26.061Z,38.13
2022-08-09T10:26:06.921Z,38.83
2022-08-09T10:30:43.910Z,38.44
2022-08-09T10:34:35.784Z,38.78
2022-08-09T10:38:57.257Z,38.50
2022-08-09T10:43:11.212Z,38.32
2022-08-09T10:48:19.203Z,39.06
2022-08-09T10:52:13.571Z,36.74
2022-08-09T10:56:31.014Z,37.59
2022-08-09T11:03:01.664Z,36.59
2022-08-09T11:05:24.860Z,36.61
2022-08-09T11:09:53.875Z,36.34
2022-08-09T11:14:35.181Z,35.85
2022-08-09T11:18:48.452Z,35.92
2022-08-09T11:23:07.145Z,35.57
2022-08-09T11:28:03.999Z,35.69
2022-08-09T11:32:02.391Z,35.95
2022-08-09T11:36:10.507Z,36.17
2022-08-09T11:40:37.479Z,36.53
2022-08-09T11:44:49.783Z,36.36
2022-08-09T11:48:58.791Z,36.31
2022-08-09T11:53:57.647Z,35.90
2022-08-09T11:58:00.988Z,34.66
2022-08-09T12:02:37.593Z,34.30
2022-08-09T12:06:55.974Z,32.62
2022-08-09T12:11:05.133Z,32.41
2022-08-09T12:15:50.420Z,32.71
2022-08-09T12:19:59.562Z,32.54
2022-08-09T12:24:10.379Z,33.02
2022-08-09T12:29:09.667Z,32.95
2022-08-09T12:32:48.721Z,32.05
2022-08-09T12:37:21.778Z,31.72
2022-08-09T12:41:39.035Z,32.24
2022-08-09T12:45:59.876Z,31.34
2022-08-09T12:50:19.917Z,31.42
2022-08-09T12:54:31.213Z,32.49
2022-08-09T12:58:42.682Z,32.09
2022-08-09T13:02:57.331Z,31.78
2022-08-09T13:07:16.787Z,30.91
2022-08-09T13:11:32.152Z,31.91
2022-08-09T13:15:53.964Z,31.28
2022-08-09T13:20:14.085Z,30.90
2022-08-09T13:24:48.423Z,30.53
2022-08-09T13:29:09.461Z,29.63
2022-08-09T13:33:24.770Z,30.37
2022-08-09T13:37:53.426Z,31.73
2022-08-09T13:42:05.509Z,32.66
2022-08-09T13:47:15.217Z,32.77
2022-08-09T13:50:48.258Z,32.65
2022-08-09T13:55:00.682Z,32.99
2022-08-09T13:59:13.132Z,32.56
2022-08-09T14:04:03.610Z,32.96
2022-08-09T14:07:49.591Z,32.75
2022-08-09T14:12:01.036Z,32.50
2022-08-09T14:16:16.347Z,33.05
2022-08-09T14:20:29.012Z,33.60
2022-08-09T14:24:36.893Z,33.02
2022-08-09T14:28:57.334Z,33.17
2022-08-09T14:33:11.455Z,32.83
2022-08-09T14:37:20.422Z,32.88
2022-08-09T14:41:40.026Z,32.78
2022-08-09T14:46:51.421Z,32.96
2022-08-09T14:50:17.409Z,34.28
2022-08-09T14:54:27.537Z,34.49
2022-08-09T14:58:43.734Z,34.42
2022-08-09T15:02:52.243Z,34.78
2022-08-09T15:06:59.376Z,34.91
2022-08-09T15:11:07.800Z,35.85
2022-08-09T15:15:15.418Z,36.04
2022-08-09T15:19:26.228Z,36.59
2022-08-09T15:24:03.599Z,35.42
2022-08-09T15:28:02.168Z,35.76
2022-08-09T15:32:39.089Z,36.16
2022-08-09T15:36:38.577Z,36.78
2022-08-09T15:40:56.686Z,37.04
2022-08-09T15:45:05.359Z,37.03
2022-08-09T15:49:22.732Z,37.53
2022-08-09T15:54:05.691Z,36.98
2022-08-09T15:58:00.196Z,36.75
2022-08-09T16:02:09.365Z,36.08
2022-08-09T16:06:32.556Z,35.99
2022-08-09T16:10:56.257Z,35.87
2022-08-09T16:15:05.395Z,36.22
2022-08-09T16:19:36.871Z,35.94
2022-08-09T16:23:58.629Z,35.49
2022-08-09T16:28:06.734Z,35.59
2022-08-09T16:32:33.551Z,36.03
2022-08-09T16:36:41.714Z,36.29
2022-08-09T16:40:48.892Z,35.94
2022-08-09T16:44:56.600Z,35.75
2022-08-09T16:49:18.688Z,35.77
2022-08-09T16:53:33.816Z,35.40
2022-08-09T16:58:08.667Z,35.26
2022-08-09T17:02:14.006Z,35.40
2022-08-09T17:06:31.248Z,35.82
2022-08-09T17:10:40.958Z,35.88
2022-08-09T17:14:54.862Z,35.90
2022-08-09T17:19:05.488Z,36.37
2022-08-09T17:23:14.722Z,36.28
2022-08-09T17:27:22.496Z,35.97
2022-08-09T17:31:30.044Z,35.65
2022-08-09T17:35:46.689Z,35.58
2022-08-09T17:39:56.366Z,35.86
2022-08-09T17:44:42.209Z,35.98
2022-08-09T17:48:31.377Z,36.28
2022-08-09T17:52:38.971Z,36.51
2022-08-09T17:56:47.659Z,36.95
2022-08-09T18:00:56.438Z,37.56
2022-08-09T18:05:04.822Z,38.58
2022-08-09T18:09:12.944Z,40.42
2022-08-09T18:13:40.067Z,41.93
2022-08-09T18:18:03.997Z,43.46
2022-08-09T18:22:16.861Z,44.45
2022-08-09T18:26:24.914Z,45.10
2022-08-09T18:30:35.117Z,45.28
2022-08-09T18:34:50.374Z,44.88
2022-08-09T18:39:02.765Z,45.62
2022-08-09T18:43:11.050Z,46.00
2022-08-09T18:47:23.827Z,46.17
2022-08-09T18:51:38.402Z,46.57
2022-08-09T18:56:01.056Z,47.04
2022-08-09T19:00:19.202Z,47.70
2022-08-09T19:04:35.250Z,48.54
2022-08-09T19:08:54.872Z,49.24
2022-08-09T19:13:13.616Z,49.47
2022-08-09T19:17:31.315Z,49.83
2022-08-09T19:22:04.302Z,50.28
2022-08-09T19:26:13.877Z,50.57
2022-08-09T19:30:28.822Z,50.93
2022-08-09T19:34:43.607Z,51.24
2022-08-09T19:38:52.073Z,51.44
2022-08-09T19:42:59.947Z,52.06
2022-08-09T19:47:11.078Z,52.56
2022-08-09T19:51:18.868Z,53.22
2022-08-09T19:55:53.039Z,53.48
2022-08-09T19:59:59.365Z,53.39
2022-08-09T20:04:25.090Z,53.51
2022-08-09T20:08:37.406Z,53.82
2022-08-09T20:12:46.779Z,54.19
2022-08-09T20:16:57.172Z,54.98
2022-08-09T20:21:08.557Z,55.62
2022-08-09T20:25:22.866Z,55.87
2022-08-09T20:29:37.357Z,55.90
2022-08-09T20:33:45.827Z,56.41
2022-08-09T20:38:21.119Z,56.87
2022-08-09T20:42:21.474Z,57.51
2022-08-09T20:46:42.452Z,57.67
2022-08-09T20:50:55.784Z,57.87
2022-08-09T20:55:08.786Z,57.72
2022-08-09T20:59:25.014Z,57.50
2022-08-09T21:04:07.952Z,57.69
2022-08-09T21:08:14.693Z,58.29
2022-08-09T21:12:22.211Z,58.89
2022-08-09T21:16:30.571Z,59.35
2022-08-09T21:20:39.412Z,59.64
2022-08-09T21:25:04.420Z,59.35
2022-08-09T21:29:14.530Z,59.81
2022-08-09T21:33:36.118Z,60.21
2022-08-09T21:37:58.830Z,60.69
2022-08-09T21:42:10.127Z,60.72
2022-08-09T21:46:19.363Z,61.16
2022-08-09T21:50:38.519Z,61.38
2022-08-09T21:54:50.536Z,61.19
2022-08-09T21:59:01.136Z,61.42
2022-08-09T22:03:19.173Z,61.45
2022-08-09T22:07:41.522Z,61.59
2022-08-09T22:12:18.079Z,61.59
2022-08-09T22:16:24.970Z,61.77
2022-08-09T22:20:32.536Z,61.96
2022-08-09T22:24:40.408Z,62.29
2022-08-09T22:29:09.998Z,62.50
2022-08-09T22:33:18.054Z,62.46
2022-08-09T22:37:29.233Z,62.57
2022-08-09T22:41:48.408Z,62.77
2022-08-09T22:48:12.118Z,62.80
2022-08-09T22:50:23.942Z,62.93
2022-08-09T22:54:32.830Z,63.23
2022-08-09T22:58:40.353Z,63.51
2022-08-09T23:02:50.183Z,64.11
2022-08-09T23:07:16.431Z,64.43
2022-08-09T23:11:24.554Z,64.51
2022-08-09T23:15:32.440Z,64.84
2022-08-09T23:20:06.471Z,65.06
2022-08-09T23:24:08.064Z,65.13
2022-08-09T23:28:16.259Z,65.48
2022-08-09T23:32:23.932Z,65.55
2022-08-09T23:36:31.680Z,65.55
2022-08-09T23:40:39.295Z,65.54
2022-08-09T23:44:48.651Z,65.40
2022-08-09T23:48:57.086Z,65.51
2022-08-09T23:53:04.848Z,65.69
2022-08-09T23:57:13.244Z,65.86
